Relevés horaires Beauvechain (Belgique)


Relevés horaires à Beauvechain - Mercredi 17 Avr. 2019
Heure UTC1 Température [°C] Vent [km/h] Hum. [%] Pres.4 [hPa] Visi. [Km] Nébu. [octa] Préc.5 [mm] Cond.
2m. Res. Ros. Dir.2 Vit. Moy. Raf.3
23:00 9.5 9.5 6.7 E 3.7 -- 5.6 83 1022.8(0.2/3h) 9 -- -- --
22:00 9.9 9.9 6.5 NE 3.7 -- 3.7 79 1022.8(0.8/3h) 9 -- -- --
21:00 11.0 11.0 6.8 E 3.7 -- 7.4 75 1022.5(0.7/3h) 10 -- -- --
20:00 11.5 11.5 6.8 NNO 1.9 -- 5.6 73 1022.6(0.6/3h) 9 -- -- --
19:00 11.7 11.5 6.6 ENE 5.6 -- 7.4 71 1021.8(0.0/3h) 10 -- -- --
18:00 13.6 13.6 7.2 ENE 3.7 -- 7.4 65 1021.6(-0.2/3h) 14 -- -- --
16:00 14.3 14.3 6.9 E 3.7 -- 5.6 61 1021.7(-0.1/3h) 14 7/8 -- --
15:00 14.1 14.1 7.1 NNO 1.9 -- 7.4 63 1021.8(0.0/3h) 14 7/8 -- --
14:00 14.1 14.1 6.8 S 3.7 -- 7.4 61 1021.8(0.1/3h) 14 7/8 -- --
13:00 14.1 14.1 7.0 NNO 1.9 -- 7.4 62 1021.8(0.1/3h) 12 7/8 -- --
12:00 13.1 13.1 7.1 S 3.7 -- 7.4 67 1022(0.3/3h) 10 7/8 -- Etat du ciel inchangé
11:00 13.1 13.1 6.8 S 3.7 -- 7.4 66 1021.7(0.6/3h) 10 7/8 -- --
10:00 12.8 12.8 6.9 SSO 3.7 -- 5.6 67 1021.7(1.1/3h) 9 7/8 -- Etat du ciel inchangé
09:00 11.6 11.6 7.5 S 3.7 -- 5.6 76 1021.7(1.3/3h) 6 8/8 -- Il y a de la pluie faible et intermittente à la station au moment de l'observation
08:00 10.8 10.8 7.5 SO 3.7 -- 5.6 80 1021.2(1.3/3h) 4.5 8/8 -- --
07:00 10.0 10.0 7.5 NNO 1.9 -- 3.7 84 1020.7(1.3/3h) 5 7/8 -- --
06:00 9.7 9.7 7.7 NNO 1.9 -- 5.6 87 1020.3(1.1/3h) 6 -- 0.1/12h
NA
05:00 9.5 9.5 7.6 SSO 3.7 -- 3.7 88 1019.8(0.6/3h) 5 -- -- --
04:00 9.6 9.6 7.7 NNO 1.9 -- 3.7 88 1019.3(0.4/3h) 6 -- -- --
03:00 9.6 9.6 7.8 NNO 1.9 -- 5.6 89 1019.2(0.3/3h) 8 -- -- NA
02:00 9.9 9.9 7.6 S 3.7 -- 5.6 86 1019.2(0.2/3h) 20 -- -- --
01:00 10.0 10.0 7.5 SE 3.7 -- 3.7 84 1019(0.1/3h) 20 -- -- --
00:00 10.1 10.1 7.5 NNO 1.9 -- 7.4 84 1018.8(0.3/3h) 20 -- -- --

1 Coordinated Universal Time. Actuellement il est 07:00 locale et 06:00 UTC.

2 Le vent souffle depuis la direction indiquée vers la direction oposée.

3 Les rafales max. sont disponible 40 min après l'heure du relevé.

4 Pour les stations d'altitude (plus de 600m) le géopotentiel du niveau le plus proche de la pression obligatoire est indiqué.

5 Les stations disposant d'un diffuseur peuvent indiquer "trace". Cela signifie que des précipitations ont touchés le sol mais que la quantité est inférieure à 0.1 mm.

Récapitulatif de la journée
Température [°C] Vent [km/h] Ensoleillement4 [h] Precipitations totale5 [mm] Pression [Hpa]
Min1 Max.2 Moy.3 Max. Min Max.
9.3 14.6 0 7.4 0 h 0 min 0 1018.8 1022.8

1 Température minimale relevée entre 18:00 UTC la veille et 18:00 UTC le jour donné.

2 Température maximale relevée entre 06:00 UTC le jour donné et 06:00 UTC le lendemain.

3 Vent moyen de la journée basé sur les relevés horaires.

4 Ensoleillement en heures relevé entre 06:00 UTC la veille et 06:00 UTC le jour donné.

5 Précipitations totales tombées entre 06:00 UTC la jour donné et 06:00 UTC le lendemain.

Graphiques horaires